Time;durP1;ratioP1;P1;durP2;ratioP2;P2;SDS_P1;SDS_P2;PMS_P1;PMS_P2;Temp;Humidity;BMP_temperature;BMP_pressure;BME280_temperature;BME280_humidity;BME280_pressure;Samples;Min_cycle;Max_cycle;Signal;HPM_P1;HPM_P2
2022/07/27 00:00:55;;;;;;;2.70;0.52;;;;;;;25.25;37.37;101710.66;5017024;28;20039;-66
2022/07/27 00:03:22;;;;;;;3.42;0.60;;;;;;;25.26;36.96;101713.22;5000601;28;20582;-66
2022/07/27 00:05:47;;;;;;;1.40;0.68;;;;;;;25.27;36.77;101714.03;5034556;28;20033;-66
2022/07/27 00:08:13;;;;;;;1.95;0.60;;;;;;;25.25;37.45;101702.41;5033415;28;20100;-66
2022/07/27 00:10:38;;;;;;;3.72;0.70;;;;;;;25.24;37.05;101706.19;5033439;28;20037;-65
2022/07/27 00:13:04;;;;;;;1.02;0.63;;;;;;;25.25;36.59;101710.66;5033372;28;20029;-65
2022/07/27 00:15:30;;;;;;;1.73;0.43;;;;;;;25.21;37.29;101706.63;5034606;28;20029;-66
2022/07/27 00:17:59;;;;;;;1.02;0.50;;;;;;;25.23;37.45;101712.75;5016652;28;20059;-66
2022/07/27 00:20:25;;;;;;;4.78;0.70;;;;;;;25.21;37.24;101709.38;5034326;28;20514;-66
2022/07/27 00:22:51;;;;;;;2.72;0.70;;;;;;;25.23;37.17;101707.28;5033050;28;20036;-66
2022/07/27 00:25:16;;;;;;;1.55;0.60;;;;;;;25.23;37.30;101713.63;5032971;28;20033;-65
2022/07/27 00:27:41;;;;;;;2.42;0.50;;;;;;;25.18;37.33;101705.13;5033038;28;20112;-65
2022/07/27 00:30:07;;;;;;;7.70;0.90;;;;;;;25.17;37.42;101700.72;5033151;28;20037;-65
2022/07/27 00:32:32;;;;;;;2.58;0.73;;;;;;;25.16;37.09;101706.38;5032957;28;20079;-66
2022/07/27 00:34:58;;;;;;;4.90;0.63;;;;;;;25.12;37.68;101705.97;5034422;28;20085;-65
2022/07/27 00:37:23;;;;;;;5.88;1.08;;;;;;;25.12;36.98;101710.59;4999718;28;20030;-65
2022/07/27 00:39:49;;;;;;;3.45;0.60;;;;;;;25.09;37.51;101709.09;5032765;28;20081;-67
2022/07/27 00:42:14;;;;;;;1.90;0.50;;;;;;;25.07;37.81;101707.63;5033963;28;20116;-65
2022/07/27 00:44:40;;;;;;;2.28;0.95;;;;;;;25.05;37.06;101701.47;5032531;28;20029;-65
2022/07/27 00:47:05;;;;;;;1.23;0.73;;;;;;;25.02;37.64;101708.22;5015158;28;20025;-65
2022/07/27 00:49:31;;;;;;;4.68;1.13;;;;;;;25.03;37.36;101711.78;5032362;28;20033;-65
2022/07/27 00:51:56;;;;;;;3.17;0.77;;;;;;;25.00;37.53;101712.19;5033677;28;20036;-65
2022/07/27 00:54:22;;;;;;;3.63;1.08;;;;;;;24.97;37.32;101707.97;5015952;28;20034;-66
2022/07/27 00:56:47;;;;;;;4.35;0.70;;;;;;;24.95;37.49;101701.00;5015995;28;20084;-65
2022/07/27 00:59:14;;;;;;;4.03;0.65;;;;;;;24.93;37.34;101700.38;5015864;28;20029;-66
2022/07/27 01:01:40;;;;;;;7.53;0.88;;;;;;;24.90;38.10;101702.44;5015748;28;20451;-66
2022/07/27 01:04:05;;;;;;;5.25;0.77;;;;;;;24.85;38.18;101710.41;5032372;28;20075;-65
2022/07/27 01:06:32;;;;;;;1.17;0.75;;;;;;;24.82;37.74;101708.09;5032286;28;20033;-65
2022/07/27 01:11:45;;;;;;;3.38;0.70;;;;;;;24.72;37.74;101704.81;5032298;28;20040;-65
2022/07/27 01:14:12;;;;;;;1.67;0.52;;;;;;;24.69;38.13;101699.75;5032163;28;20120;-66
2022/07/27 01:16:38;;;;;;;3.30;0.93;;;;;;;24.65;38.51;101701.19;5032236;28;20033;-66
2022/07/27 01:19:03;;;;;;;4.20;1.13;;;;;;;24.60;37.97;101695.47;5031899;28;20490;-65
2022/07/27 01:21:32;;;;;;;11.10;0.80;;;;;;;24.58;38.40;101696.69;5015606;28;20391;-65
2022/07/27 01:23:58;;;;;;;2.08;0.73;;;;;;;24.56;38.30;101705.13;5015547;28;20447;-65
2022/07/27 01:26:23;;;;;;;2.10;0.68;;;;;;;24.51;38.04;101696.66;5032028;28;20120;-65
2022/07/27 01:28:49;;;;;;;6.57;1.42;;;;;;;24.45;37.89;101694.72;5015415;28;20464;-66
2022/07/27 01:31:14;;;;;;;3.60;0.80;;;;;;;24.41;38.43;101696.16;5015460;28;20763;-66
2022/07/27 01:33:39;;;;;;;5.05;1.20;;;;;;;24.41;39.04;101711.75;5013665;28;20041;-66
2022/07/27 01:36:06;;;;;;;2.08;1.00;;;;;;;24.36;38.60;101704.13;5014310;28;20089;-66
2022/07/27 01:38:31;;;;;;;4.38;1.00;;;;;;;24.32;38.44;101702.81;5031538;28;20068;-66
2022/07/27 01:40:57;;;;;;;3.33;1.00;;;;;;;24.32;38.39;101700.94;5015185;28;20394;-66
2022/07/27 01:43:22;;;;;;;1.40;0.65;;;;;;;24.26;38.36;101703.63;5031726;28;20045;-66
2022/07/27 01:45:48;;;;;;;5.30;1.02;;;;;;;24.25;38.82;101701.94;5015228;28;20027;-66
2022/07/27 01:48:13;;;;;;;1.63;1.15;;;;;;;24.22;38.43;101699.56;5031677;28;20113;-65
2022/07/27 01:50:39;;;;;;;2.78;1.00;;;;;;;24.16;38.96;101686.66;5031399;28;20029;-65
2022/07/27 01:53:04;;;;;;;1.85;0.60;;;;;;;24.15;38.64;101687.69;5015167;28;20116;-66
2022/07/27 01:55:30;;;;;;;2.55;0.90;;;;;;;24.13;39.11;101698.00;5031445;28;20071;-66
2022/07/27 01:57:55;;;;;;;68.30;6.07;;;;;;;24.11;38.34;101694.63;5014533;28;20025;-66
2022/07/27 02:00:20;;;;;;;2.78;0.80;;;;;;;24.06;39.18;101697.09;5031531;28;20029;-65
2022/07/27 02:02:46;;;;;;;3.08;1.20;;;;;;;24.03;39.29;101694.72;5031413;28;20092;-65
2022/07/27 02:05:11;;;;;;;6.78;0.98;;;;;;;24.01;39.51;101702.31;5031287;28;20037;-65
2022/07/27 02:07:40;;;;;;;5.15;1.27;;;;;;;23.98;39.59;101705.44;5032485;28;20553;-65
2022/07/27 02:10:06;;;;;;;4.47;1.00;;;;;;;23.94;39.51;101698.63;5031324;28;20095;-65
2022/07/27 02:12:34;;;;;;;2.65;1.05;;;;;;;23.89;39.73;101695.66;5031373;28;20029;-65
2022/07/27 02:15:00;;;;;;;2.15;1.20;;;;;;;23.86;39.04;101704.25;5032483;28;20064;-65
2022/07/27 02:17:25;;;;;;;6.05;1.00;;;;;;;23.80;39.56;101697.66;5031209;28;20057;-65
2022/07/27 02:19:51;;;;;;;1.73;1.20;;;;;;;23.77;39.14;101703.50;5014944;28;20033;-66
2022/07/27 02:22:16;;;;;;;1.58;0.70;;;;;;;23.75;40.00;101695.50;5031096;28;20025;-65
2022/07/27 02:24:41;;;;;;;5.70;0.88;;;;;;;23.72;39.69;101698.63;5014741;28;20380;-65
2022/07/27 02:27:07;;;;;;;4.63;0.95;;;;;;;23.69;38.81;101701.75;5031426;28;20029;-65
2022/07/27 02:29:32;;;;;;;6.00;1.00;;;;;;;23.63;39.04;101697.06;5031343;28;20030;-66
2022/07/27 02:31:58;;;;;;;5.18;1.13;;;;;;;23.60;39.64;101696.59;5031026;28;20033;-66
2022/07/27 02:34:23;;;;;;;3.03;0.80;;;;;;;23.58;39.68;101705.00;5032048;28;20477;-65
2022/07/27 02:36:48;;;;;;;1.92;0.90;;;;;;;23.56;38.93;101701.59;5032149;28;20120;-65
2022/07/27 02:39:14;;;;;;;2.78;0.80;;;;;;;23.52;39.70;101700.28;5030908;28;20471;-65
2022/07/27 02:41:39;;;;;;;4.30;1.00;;;;;;;23.48;39.80;101693.50;5030910;28;20479;-65
2022/07/27 02:44:05;;;;;;;3.22;1.20;;;;;;;23.45;39.71;101704.81;5014529;28;20106;-66
2022/07/27 02:46:30;;;;;;;6.35;1.35;;;;;;;23.43;40.34;101697.84;5030783;28;20029;-66
2022/07/27 02:48:55;;;;;;;3.75;0.98;;;;;;;23.39;39.94;101704.75;5032035;28;20051;-66
2022/07/27 02:51:21;;;;;;;5.40;1.08;;;;;;;23.36;40.25;101696.91;5030919;28;20030;-65
2022/07/27 02:53:46;;;;;;;6.43;1.33;;;;;;;23.32;40.23;101699.16;5014470;28;20043;-65
2022/07/27 02:56:12;;;;;;;2.28;0.50;;;;;;;23.32;39.30;101693.69;5014416;28;20041;-65
2022/07/27 02:58:37;;;;;;;3.70;1.58;;;;;;;23.27;39.15;101693.41;5032108;28;20475;-66
2022/07/27 03:01:04;;;;;;;3.05;0.95;;;;;;;23.25;40.32;101698.25;5030642;28;20034;-65
2022/07/27 03:03:29;;;;;;;2.67;0.95;;;;;;;23.20;40.17;101690.59;5014447;28;20021;-65
2022/07/27 03:05:57;;;;;;;1.63;0.95;;;;;;;23.18;39.86;101698.16;5014344;28;20039;-66
2022/07/27 03:08:22;;;;;;;5.85;1.00;;;;;;;23.15;40.06;101694.94;5030961;28;20083;-66
2022/07/27 03:10:48;;;;;;;4.03;0.70;;;;;;;23.14;40.46;101693.25;5034350;28;20434;-66
2022/07/27 03:13:13;;;;;;;1.67;0.90;;;;;;;23.11;40.68;101701.84;5034522;28;20110;-66
2022/07/27 03:15:38;;;;;;;1.88;0.90;;;;;;;23.09;40.14;101709.34;5034490;28;20030;-65
2022/07/27 03:18:04;;;;;;;1.17;0.70;;;;;;;23.05;39.65;101708.91;5034087;28;20108;-65
2022/07/27 03:20:29;;;;;;;4.22;1.17;;;;;;;23.03;40.12;101712.88;5017921;28;20030;-65
2022/07/27 03:22:55;;;;;;;2.60;0.90;;;;;;;23.01;40.07;101712.19;5035424;28;20068;-65
2022/07/27 03:25:20;;;;;;;1.98;1.00;;;;;;;22.99;39.70;101706.06;5001464;28;20026;-65
2022/07/27 03:27:45;;;;;;;5.63;1.30;;;;;;;22.97;40.88;101705.41;5035324;28;20026;-65
2022/07/27 03:30:11;;;;;;;1.55;0.60;;;;;;;22.94;40.60;101711.25;5017612;28;20123;-65
2022/07/27 03:32:36;;;;;;;1.70;0.88;;;;;;;22.90;40.41;101705.31;5035043;28;20476;-65
2022/07/27 03:35:02;;;;;;;3.95;0.95;;;;;;;22.89;39.71;101705.50;5017489;28;20165;-66
2022/07/27 03:37:28;;;;;;;1.52;0.80;;;;;;;22.87;40.75;101715.75;5001084;28;20032;-66
2022/07/27 03:39:53;;;;;;;5.22;1.27;;;;;;;22.83;39.96;101711.72;5033852;28;20479;-65
2022/07/27 03:42:18;;;;;;;5.40;0.57;;;;;;;22.82;40.26;101707.28;5033839;28;20037;-65
2022/07/27 03:44:44;;;;;;;2.53;0.85;;;;;;;22.79;40.02;101703.03;5000969;28;20179;-66
2022/07/27 03:47:09;;;;;;;7.25;0.90;;;;;;;22.77;41.08;101707.84;5033453;28;20025;-66
2022/07/27 03:49:34;;;;;;;3.80;0.70;;;;;;;22.73;40.49;101702.94;5033672;28;20089;-67
2022/07/27 03:52:00;;;;;;;2.22;0.55;;;;;;;22.72;40.27;101706.72;5017037;28;20036;-65
2022/07/27 03:54:26;;;;;;;1.95;0.43;;;;;;;22.71;40.29;101713.22;5033644;28;20117;-65
2022/07/27 03:56:51;;;;;;;5.07;1.00;;;;;;;22.67;40.25;101711.91;5034769;28;20183;-65
2022/07/27 03:59:16;;;;;;;5.97;1.30;;;;;;;22.69;40.91;101723.47;5017121;28;20037;-65
2022/07/27 04:01:42;;;;;;;2.00;1.00;;;;;;;22.65;40.38;101722.16;5034820;28;20120;-65
2022/07/27 04:04:07;;;;;;;3.28;0.80;;;;;;;22.64;40.32;101726.75;5017177;28;20483;-65
2022/07/27 04:06:33;;;;;;;3.60;0.90;;;;;;;22.63;40.25;101716.84;5033410;28;20032;-65
2022/07/27 04:08:58;;;;;;;1.65;0.98;;;;;;;22.59;40.13;101719.09;5016937;28;20120;-65
2022/07/27 04:11:23;;;;;;;1.30;1.08;;;;;;;22.55;41.08;101717.78;5016912;28;20025;-65
2022/07/27 04:13:49;;;;;;;4.70;0.90;;;;;;;22.53;41.10;101722.56;5034420;28;20033;-65
2022/07/27 04:16:15;;;;;;;0.75;0.63;;;;;;;22.50;41.21;101714.75;5033552;28;20033;-65
2022/07/27 04:18:40;;;;;;;3.78;0.70;;;;;;;22.47;40.86;101715.09;5033014;28;20368;-65
2022/07/27 04:21:06;;;;;;;8.10;1.38;;;;;;;22.45;41.24;101722.66;5034092;28;20397;-65
2022/07/27 04:23:33;;;;;;;5.65;1.10;;;;;;;22.42;41.07;101723.00;5016672;28;20033;-65
2022/07/27 04:25:58;;;;;;;2.13;1.00;;;;;;;22.43;40.28;101724.72;5033208;28;20053;-65
2022/07/27 04:28:24;;;;;;;3.42;0.93;;;;;;;22.42;41.26;101728.47;5032983;28;20475;-65
2022/07/27 04:30:49;;;;;;;3.88;1.02;;;;;;;22.44;40.89;101725.56;5033104;28;20379;-65
2022/07/27 04:33:15;;;;;;;4.70;0.95;;;;;;;22.45;41.14;101733.56;5032685;28;20481;-65
2022/07/27 04:35:40;;;;;;;1.05;0.90;;;;;;;22.50;40.47;101736.59;5033005;28;20040;-64
2022/07/27 04:38:06;;;;;;;1.20;0.77;;;;;;;22.43;41.29;101724.72;5032538;28;20040;-64
2022/07/27 04:40:32;;;;;;;2.45;1.13;;;;;;;22.57;40.96;101737.56;5032773;28;20242;-65
2022/07/27 04:42:59;;;;;;;1.95;1.45;;;;;;;22.59;40.38;101735.50;5016420;28;20040;-65
2022/07/27 04:45:24;;;;;;;1.70;1.10;;;;;;;22.69;41.19;101745.34;5032708;28;20025;-65
2022/07/27 04:47:50;;;;;;;2.90;1.00;;;;;;;22.73;41.17;101743.91;5032715;28;20030;-65
2022/07/27 04:50:15;;;;;;;5.53;1.10;;;;;;;22.79;40.84;101740.44;5015996;28;20033;-65
2022/07/27 04:52:41;;;;;;;5.80;1.13;;;;;;;22.87;41.27;101743.09;5016155;28;20025;-65
2022/07/27 04:55:06;;;;;;;1.70;1.45;;;;;;;22.91;41.08;101738.97;5033619;28;20117;-65
2022/07/27 04:57:32;;;;;;;5.15;1.27;;;;;;;23.00;40.88;101746.03;5032503;28;20037;-65
2022/07/27 04:59:58;;;;;;;2.28;1.00;;;;;;;23.05;40.66;101740.84;5015827;28;20091;-65
2022/07/27 05:02:25;;;;;;;2.55;0.85;;;;;;;23.15;40.55;101747.72;5016070;28;20052;-65
2022/07/27 05:04:50;;;;;;;4.30;1.55;;;;;;;23.24;40.01;101751.22;5016045;28;20044;-65
2022/07/27 05:07:16;;;;;;;3.97;1.35;;;;;;;23.31;41.18;101749.41;5032390;28;20136;-65
2022/07/27 05:09:41;;;;;;;4.88;1.10;;;;;;;23.40;40.15;101745.56;5032083;28;20032;-65
2022/07/27 05:12:06;;;;;;;3.85;1.52;;;;;;;23.51;39.84;101753.28;5032228;28;20573;-66
2022/07/27 05:14:32;;;;;;;8.80;1.67;;;;;;;23.61;40.74;101753.84;5033911;28;20059;-65
2022/07/27 05:16:59;;;;;;;2.22;0.93;;;;;;;23.71;40.63;101748.91;5000086;28;20067;-65
2022/07/27 05:19:24;;;;;;;3.75;1.02;;;;;;;23.81;40.37;101753.25;4999166;28;20041;-65
2022/07/27 05:21:50;;;;;;;6.65;1.40;;;;;;;23.92;39.59;101755.47;5015590;28;20032;-65
2022/07/27 05:24:15;;;;;;;8.57;1.50;;;;;;;24.04;40.06;101764.84;5015725;28;20108;-65
2022/07/27 05:26:41;;;;;;;2.35;1.10;;;;;;;24.14;39.77;101759.94;5031994;28;20068;-65
2022/07/27 05:29:06;;;;;;;3.40;1.42;;;;;;;24.24;39.74;101753.09;5015628;28;20075;-65
2022/07/27 05:31:31;;;;;;;3.25;1.30;;;;;;;24.34;39.49;101758.25;5031529;28;20033;-65
2022/07/27 05:33:57;;;;;;;4.97;1.35;;;;;;;24.47;39.34;101757.53;5031771;28;20050;-65
2022/07/27 05:36:22;;;;;;;7.65;1.50;;;;;;;24.57;39.65;101755.28;5033031;28;20032;-65
2022/07/27 05:38:48;;;;;;;2.97;0.90;;;;;;;24.70;39.65;101750.78;5032061;28;20040;-65
2022/07/27 05:41:13;;;;;;;10.02;1.30;;;;;;;24.80;38.99;101747.72;4995952;28;20170;-65
2022/07/27 05:43:39;;;;;;;2.78;1.33;;;;;;;24.95;39.01;101758.56;5033003;28;20475;-65
2022/07/27 05:46:04;;;;;;;3.03;1.17;;;;;;;25.09;38.60;101749.38;5032898;28;20075;-65
2022/07/27 05:48:30;;;;;;;2.03;1.30;;;;;;;25.22;38.91;101754.94;5029179;28;20045;-66
2022/07/27 05:50:55;;;;;;;3.35;1.30;;;;;;;25.38;38.49;101760.09;5028727;28;20077;-65
2022/07/27 05:53:20;;;;;;;1.63;1.00;;;;;;;25.54;38.67;101756.19;4996036;28;20046;-66
2022/07/27 05:55:47;;;;;;;7.70;1.83;;;;;;;25.70;38.28;101748.47;4983073;28;20125;-66
2022/07/27 05:58:12;;;;;;;7.88;0.88;;;;;;;25.88;38.39;101762.44;4996306;28;20079;-66
2022/07/27 06:00:37;;;;;;;6.55;1.10;;;;;;;26.07;38.10;101754.47;5012588;28;20029;-66
2022/07/27 06:03:03;;;;;;;1.75;0.80;;;;;;;26.29;37.47;101762.38;5013937;28;20036;-66
2022/07/27 06:05:28;;;;;;;4.38;1.02;;;;;;;26.47;37.85;101761.72;5016443;28;20030;-66
2022/07/27 06:08:07;;;;;;;5.00;1.33;;;;;;;26.65;37.29;101756.47;5032131;28;20021;-66
2022/07/27 06:10:33;;;;;;;3.75;0.80;;;;;;;26.85;37.50;101765.59;5017994;28;20055;-66
2022/07/27 06:13:00;;;;;;;2.47;1.10;;;;;;;27.00;37.15;101757.94;5032187;28;20074;-66
2022/07/27 06:15:26;;;;;;;1.88;0.98;;;;;;;27.15;36.76;101771.44;5032527;28;20029;-67
2022/07/27 06:17:52;;;;;;;8.38;1.23;;;;;;;27.28;37.07;101767.81;4999573;28;20235;-66
2022/07/27 06:20:19;;;;;;;6.85;0.80;;;;;;;27.40;36.18;101768.84;4999573;28;20021;-65
2022/07/27 06:22:45;;;;;;;3.13;1.00;;;;;;;27.52;36.93;101764.38;5033528;28;20491;-66
2022/07/27 06:25:11;;;;;;;1.80;1.27;;;;;;;27.61;36.57;101761.16;5031967;28;20116;-66
2022/07/27 06:27:36;;;;;;;4.53;1.02;;;;;;;27.75;35.96;101772.97;5015926;28;20076;-66
2022/07/27 06:30:03;;;;;;;3.63;0.73;;;;;;;27.88;36.64;101772.06;5033168;28;20029;-65
2022/07/27 06:32:28;;;;;;;7.28;0.98;;;;;;;28.00;35.77;101770.31;5015612;28;20036;-65
2022/07/27 06:34:54;;;;;;;4.18;0.85;;;;;;;28.13;36.28;101773.88;5033014;28;20426;-66
2022/07/27 06:37:19;;;;;;;3.30;0.80;;;;;;;28.23;34.97;101768.69;5015462;28;20029;-65
2022/07/27 06:39:45;;;;;;;2.97;1.00;;;;;;;28.36;35.93;101772.44;5015808;28;20510;-65
2022/07/27 06:42:13;;;;;;;7.35;1.35;;;;;;;28.48;35.85;101773.38;5033075;28;20025;-65
2022/07/27 06:44:39;;;;;;;0.93;0.68;;;;;;;28.65;35.43;101769.03;5034753;28;20079;-66
2022/07/27 06:47:04;;;;;;;2.28;0.77;;;;;;;28.80;35.29;101764.03;5036013;28;20044;-66
2022/07/27 06:49:30;;;;;;;1.33;0.65;;;;;;;28.96;34.70;101766.22;5035801;28;20021;-66
2022/07/27 06:51:55;;;;;;;3.13;0.63;;;;;;;29.12;34.46;101762.84;5019560;28;20067;-65
2022/07/27 06:54:21;;;;;;;3.20;0.70;;;;;;;29.26;34.64;101769.94;5003206;28;20030;-66
2022/07/27 06:56:46;;;;;;;2.42;0.57;;;;;;;29.43;33.83;101770.19;5019306;28;20029;-64
2022/07/27 06:59:12;;;;;;;5.72;0.70;;;;;;;29.55;33.75;101765.59;5035664;28;20068;-65
2022/07/27 07:01:38;;;;;;;2.72;1.08;;;;;;;29.72;33.69;101763.03;5019462;28;20502;-65
2022/07/27 07:04:03;;;;;;;1.55;0.60;;;;;;;29.86;33.74;101767.34;5036719;28;20130;-65
2022/07/27 07:06:29;;;;;;;2.50;0.40;;;;;;;29.74;33.54;101763.63;5036853;28;20030;-66
2022/07/27 07:08:54;;;;;;;0.55;0.32;;;;;;;29.97;32.98;101763.78;5035420;28;20053;-65
2022/07/27 07:11:19;;;;;;;3.83;0.50;;;;;;;29.93;32.90;101766.16;5035427;28;20040;-67
2022/07/27 07:13:45;;;;;;;0.68;0.28;;;;;;;30.13;32.74;101771.41;5035453;28;20021;-65
2022/07/27 07:16:10;;;;;;;1.33;0.38;;;;;;;30.28;32.74;101771.84;5036966;28;20038;-66
2022/07/27 07:18:35;;;;;;;3.20;0.50;;;;;;;30.44;32.20;101771.19;5035048;28;20045;-65
2022/07/27 07:21:01;;;;;;;4.30;0.60;;;;;;;30.50;32.41;101770.22;5036324;28;20026;-65
2022/07/27 07:23:26;;;;;;;2.65;0.60;;;;;;;30.71;31.85;101776.28;5002330;28;20029;-66
2022/07/27 07:25:52;;;;;;;2.42;0.30;;;;;;;30.61;32.04;101779.63;5002167;28;20033;-66
2022/07/27 07:28:20;;;;;;;3.95;0.55;;;;;;;30.36;32.64;101781.69;5018532;28;20041;-65
2022/07/27 07:30:47;;;;;;;2.50;0.70;;;;;;;30.24;32.11;101776.13;5036013;28;20348;-65
2022/07/27 07:33:12;;;;;;;4.38;0.32;;;;;;;30.01;31.99;101781.59;5018420;28;20021;-65
2022/07/27 07:35:37;;;;;;;1.85;0.30;;;;;;;30.13;31.92;101785.22;5018589;28;20392;-66
2022/07/27 07:38:03;;;;;;;0.45;0.38;;;;;;;29.76;32.73;101784.44;5036262;28;20035;-66
2022/07/27 07:40:29;;;;;;;1.65;0.65;;;;;;;29.74;32.45;101781.06;5037527;28;20041;-65
2022/07/27 07:42:58;;;;;;;2.90;0.65;;;;;;;29.77;32.53;101788.03;5034521;28;20443;-66
2022/07/27 07:45:25;;;;;;;5.95;1.23;;;;;;;29.47;32.46;101778.84;5034486;28;20025;-66
2022/07/27 07:47:51;;;;;;;4.03;0.52;;;;;;;29.21;32.76;101789.09;5018126;28;20049;-66
2022/07/27 07:50:17;;;;;;;0.55;0.20;;;;;;;29.01;32.08;101796.72;5034805;28;20033;-66
2022/07/27 07:52:42;;;;;;;4.28;0.30;;;;;;;28.83;32.77;101793.94;5018028;28;20033;-66
2022/07/27 07:55:09;;;;;;;2.95;0.30;;;;;;;28.76;32.45;101796.75;5035449;28;20029;-66
2022/07/27 07:57:34;;;;;;;14.80;0.85;;;;;;;28.62;32.20;101797.03;5034604;28;20028;-66
2022/07/27 08:00:00;;;;;;;2.63;0.52;;;;;;;28.46;33.01;101798.44;5018087;28;20030;-66
2022/07/27 08:02:28;;;;;;;1.60;0.47;;;;;;;28.99;32.37;101793.34;5018189;28;20056;-66
2022/07/27 08:04:54;;;;;;;4.47;0.85;;;;;;;29.50;31.89;101784.78;5035436;28;20072;-66
2022/07/27 08:07:19;;;;;;;2.38;0.43;;;;;;;29.25;32.40;101787.59;5034272;28;20045;-66
2022/07/27 08:09:44;;;;;;;0.90;0.10;;;;;;;29.11;31.98;101793.47;5034342;28;20335;-66
2022/07/27 08:12:10;;;;;;;3.28;0.63;;;;;;;29.74;31.64;101780.22;5035483;28;20029;-66
2022/07/27 08:14:35;;;;;;;1.00;0.63;;;;;;;30.21;30.93;101786.84;5017936;28;20096;-66
2022/07/27 08:17:01;;;;;;;2.28;0.60;;;;;;;30.43;31.29;101790.78;5034290;28;20060;-66
2022/07/27 08:19:26;;;;;;;3.72;0.50;;;;;;;30.05;31.54;101793.84;5035238;28;20034;-66
2022/07/27 08:21:51;;;;;;;3.30;0.30;;;;;;;29.89;31.35;101794.50;5035465;28;20035;-66
2022/07/27 08:24:17;;;;;;;0.90;0.25;;;;;;;30.53;30.10;101793.81;5035293;28;20080;-66
2022/07/27 08:26:42;;;;;;;0.98;0.32;;;;;;;30.97;29.55;101797.97;5035231;28;20033;-67
2022/07/27 08:29:07;;;;;;;2.55;0.68;;;;;;;31.36;29.24;101788.94;5034047;28;20014;-66
2022/07/27 08:31:33;;;;;;;1.08;0.30;;;;;;;31.69;29.01;101788.28;5033902;28;20033;-66
2022/07/27 08:33:58;;;;;;;1.85;0.50;;;;;;;32.08;28.80;101784.66;5033764;28;20081;-66
2022/07/27 08:36:24;;;;;;;1.20;0.40;;;;;;;32.47;29.13;101788.44;5035117;28;20112;-66
2022/07/27 08:38:49;;;;;;;2.22;0.60;;;;;;;32.87;27.82;101787.47;5033903;28;20037;-66
2022/07/27 08:41:15;;;;;;;1.20;0.30;;;;;;;33.23;27.68;101781.38;5035085;28;20030;-67
2022/07/27 08:43:41;;;;;;;0.77;0.43;;;;;;;33.60;27.41;101776.94;5034040;28;20494;-66
2022/07/27 08:46:09;;;;;;;4.90;0.55;;;;;;;33.34;27.43;101777.66;5033727;28;20029;-66
2022/07/27 08:48:37;;;;;;;3.88;0.28;;;;;;;33.33;28.59;101781.56;5034934;28;20056;-66
2022/07/27 08:51:03;;;;;;;1.02;0.40;;;;;;;33.63;27.39;101776.41;5016863;28;20028;-67
2022/07/27 08:53:30;;;;;;;1.95;0.45;;;;;;;33.09;27.74;101774.50;5017083;28;20063;-67
2022/07/27 08:55:56;;;;;;;1.63;0.63;;;;;;;33.12;27.22;101785.97;5017084;28;20029;-67
2022/07/27 08:58:21;;;;;;;2.17;0.35;;;;;;;33.44;28.08;101783.38;5034438;28;20032;-67
2022/07/27 09:00:48;;;;;;;7.22;0.85;;;;;;;33.28;27.50;101789.78;5033520;28;20021;-67
2022/07/27 09:03:15;;;;;;;3.30;0.73;;;;;;;33.77;27.91;101788.84;5033380;28;20386;-67
2022/07/27 09:05:42;;;;;;;1.85;0.50;;;;;;;33.81;27.68;101778.03;5033400;28;20021;-67
2022/07/27 09:08:11;;;;;;;3.88;1.02;;;;;;;33.21;27.96;101795.56;5016216;28;20025;-67
2022/07/27 09:10:37;;;;;;;1.65;0.40;;;;;;;32.70;28.35;101793.03;5033138;28;20052;-67
2022/07/27 09:13:25;;;;;;;2.92;0.52;;;;;;;32.60;27.42;101799.25;5016873;28;20061;-67
2022/07/27 09:15:55;;;;;;;1.65;0.38;;;;;;;32.16;27.85;101802.88;5016609;28;20034;-67
2022/07/27 09:18:23;;;;;;;5.10;0.98;;;;;;;31.77;27.60;101798.97;5033147;28;20087;-66
2022/07/27 09:21:09;;;;;;;1.58;0.40;;;;;;;31.43;27.99;101797.97;5032915;28;20033;-66
2022/07/27 09:23:35;;;;;;;1.52;0.40;;;;;;;31.17;28.26;101804.00;5032968;28;20024;-66
2022/07/27 09:26:19;;;;;;;1.73;0.70;;;;;;;31.02;28.28;101806.41;5016587;28;20025;-66
2022/07/27 09:28:46;;;;;;;1.40;0.38;;;;;;;30.90;28.16;101808.31;5016518;28;20068;-66
2022/07/27 09:31:14;;;;;;;1.80;0.40;;;;;;;30.84;27.78;101809.25;5033016;28;20029;-66
2022/07/27 09:33:50;;;;;;;0.30;0.30;;;;;;;30.82;28.72;101800.34;5032748;28;20403;-66
2022/07/27 09:36:18;;;;;;;2.72;0.55;;;;;;;30.87;28.52;101797.72;5001056;28;20034;-66
2022/07/27 09:39:01;;;;;;;0.88;0.30;;;;;;;30.94;27.97;101796.53;5032496;28;20032;-66
2022/07/27 09:41:41;;;;;;;0.47;0.20;;;;;;;31.53;27.50;101797.34;5032666;28;20554;-66
2022/07/27 09:44:07;;;;;;;0.40;0.38;;;;;;;32.27;27.40;101793.66;5015759;28;20056;-66
2022/07/27 09:46:35;;;;;;;1.02;0.25;;;;;;;32.73;26.71;101787.81;5033818;28;20060;-67
2022/07/27 09:49:00;;;;;;;3.17;0.28;;;;;;;33.06;26.44;101775.03;5015825;28;20475;-66
2022/07/27 09:51:26;;;;;;;1.08;0.22;;;;;;;32.92;26.94;101784.75;5033207;28;20029;-66
2022/07/27 09:53:53;;;;;;;1.33;0.43;;;;;;;32.86;27.23;101791.38;4999415;28;20030;-66
2022/07/27 09:56:25;;;;;;;1.60;0.20;;;;;;;33.50;26.68;101787.06;5032503;28;20029;-66
2022/07/27 09:58:52;;;;;;;;;;;;;;;33.52;26.32;101788.47;5032555;28;20079;-66
2022/07/27 10:01:33;;;;;;;0.63;0.25;;;;;;;33.24;26.73;101788.63;5032297;28;19916;-66
2022/07/27 10:04:08;;;;;;;1.00;0.40;;;;;;;33.27;25.73;101782.56;5032221;28;20387;-66
2022/07/27 10:06:34;;;;;;;2.13;0.70;;;;;;;34.28;25.19;101783.88;5015782;28;20025;-66
2022/07/27 10:09:00;;;;;;;4.20;4.00;;;;;;;35.28;24.96;101777.44;5015548;28;20040;-67
2022/07/27 10:11:26;;;;;;;5.03;4.63;;;;;;;36.47;24.16;101780.09;5032025;28;20175;-68
2022/07/27 10:13:53;;;;;;;4.22;0.50;;;;;;;37.60;23.29;101760.97;5032292;28;20022;-68
2022/07/27 10:16:29;;;;;;;2.13;0.35;;;;;;;37.75;22.90;101769.28;5032111;28;20034;-67
2022/07/27 10:18:57;;;;;;;3.22;0.80;;;;;;;38.79;22.27;101770.84;5017949;28;20049;-67
2022/07/27 10:21:23;;;;;;;1.65;0.77;;;;;;;38.57;22.70;101768.50;5035819;28;20029;-67
2022/07/27 10:23:54;;;;;;;4.93;0.47;;;;;;;37.38;23.74;101775.31;5015586;28;20037;-67
2022/07/27 10:26:40;;;;;;;2.40;0.40;;;;;;;36.31;24.92;101776.47;5033192;28;20101;-67
2022/07/27 10:29:12;;;;;;;1.50;0.43;;;;;;;35.51;24.47;101774.25;5031822;28;20564;-67
2022/07/27 10:31:58;;;;;;;2.92;0.40;;;;;;;34.88;24.98;101773.25;5031735;28;20030;-67
2022/07/27 10:34:43;;;;;;;3.08;0.50;;;;;;;34.21;25.20;101774.88;5033025;28;20423;-67
2022/07/27 10:37:16;;;;;;;3.40;0.75;;;;;;;33.74;25.54;101778.22;5032921;28;20033;-67
2022/07/27 10:39:50;;;;;;;1.88;0.28;;;;;;;33.38;25.95;101776.06;5015298;28;20024;-67
2022/07/27 10:42:29;;;;;;;0.82;0.77;;;;;;;33.04;25.31;101768.84;5032817;28;20032;-67
2022/07/27 10:44:59;;;;;;;0.63;0.40;;;;;;;32.81;25.87;101787.41;5031872;28;20040;-66
2022/07/27 10:47:32;;;;;;;3.80;0.60;;;;;;;32.59;26.76;101786.47;5031894;28;20116;-67
2022/07/27 10:50:16;;;;;;;1.80;0.65;;;;;;;32.70;25.97;101784.69;5015003;28;20092;-67
2022/07/27 10:53:01;;;;;;;0.52;0.40;;;;;;;32.73;26.08;101787.81;5032911;28;20038;-67
2022/07/27 10:55:35;;;;;;;0.40;0.40;;;;;;;32.75;26.48;101780.06;5015250;28;20033;-67
2022/07/27 10:58:10;;;;;;;1.48;0.40;;;;;;;32.92;25.32;101779.22;5031609;28;20510;-67
2022/07/27 11:00:50;;;;;;;0.80;0.52;;;;;;;32.94;26.25;101772.34;5032746;28;20025;-67
2022/07/27 11:03:20;;;;;;;5.68;0.70;;;;;;;33.03;26.01;101770.78;5031206;28;20026;-66
2022/07/27 11:06:16;;;;;;;2.10;0.60;;;;;;;33.14;25.20;101766.28;5031591;28;20025;-66
2022/07/27 11:08:44;;;;;;;3.40;0.40;;;;;;;33.02;25.62;101773.84;5015057;28;20018;-66
2022/07/27 11:11:13;;;;;;;0.73;0.50;;;;;;;33.22;25.70;101766.66;5029288;28;20026;-66
2022/07/27 11:13:39;;;;;;;2.33;0.70;;;;;;;34.27;25.49;101768.25;5011782;28;20034;-67
2022/07/27 11:16:07;;;;;;;5.63;0.77;;;;;;;34.62;25.19;101754.69;5021785;28;20120;-67
2022/07/27 11:18:42;;;;;;;0.60;0.60;;;;;;;35.62;23.84;101762.03;5021795;28;20018;-67
2022/07/27 11:21:29;;;;;;;6.65;1.00;;;;;;;36.71;23.26;101758.94;5014429;28;20022;-66
2022/07/27 11:24:05;;;;;;;3.03;0.50;;;;;;;37.53;22.89;101749.25;5016988;28;20084;-67
2022/07/27 11:26:38;;;;;;;3.20;0.50;;;;;;;38.13;22.17;101737.75;5028535;28;20079;-67